createdAt,value
2023-03-20T00:02:59.266Z,18.67
2023-03-20T00:08:02.654Z,18.77
2023-03-20T00:13:08.773Z,18.61
2023-03-20T00:18:16.581Z,18.74
2023-03-20T00:23:19.941Z,18.57
2023-03-20T00:28:32.689Z,18.51
2023-03-20T00:33:38.322Z,18.59
2023-03-20T00:38:41.709Z,18.58
2023-03-20T00:43:46.820Z,18.62
2023-03-20T00:48:50.321Z,18.54
2023-03-20T00:53:53.792Z,18.53
2023-03-20T00:58:58.859Z,18.55
2023-03-20T01:04:02.400Z,18.61
2023-03-20T01:09:06.048Z,18.54
2023-03-20T01:14:15.032Z,18.57
2023-03-20T01:19:18.528Z,18.31
2023-03-20T01:24:22.003Z,18.28
2023-03-20T01:29:27.880Z,18.34
2023-03-20T01:34:31.551Z,18.50
2023-03-20T01:39:36.562Z,18.40
2023-03-20T01:44:41.597Z,18.54
2023-03-20T01:50:20.069Z,18.55
2023-03-20T01:55:24.826Z,18.22
2023-03-20T02:00:29.731Z,18.25
2023-03-20T02:05:33.351Z,18.40
2023-03-20T02:10:36.958Z,18.30
2023-03-20T02:21:32.174Z,18.10
2023-03-20T02:26:55.350Z,18.20
2023-03-20T02:32:30.587Z,18.16
2023-03-20T02:37:44.905Z,18.02
2023-03-20T02:42:57.002Z,18.07
2023-03-20T02:48:08.703Z,18.10
2023-03-20T02:53:21.364Z,18.01
2023-03-20T02:58:28.546Z,18.08
2023-03-20T03:03:38.556Z,18.01
2023-03-20T03:08:46.250Z,17.94
2023-03-20T03:13:52.596Z,18.00
2023-03-20T03:19:03.732Z,18.12
2023-03-20T03:24:37.414Z,18.05
2023-03-20T03:29:44.352Z,18.02
2023-03-20T03:34:48.169Z,17.96
2023-03-20T03:39:55.705Z,17.85
2023-03-20T03:45:03.443Z,17.92
2023-03-20T03:50:12.371Z,18.14
2023-03-20T03:55:21.756Z,17.98
2023-03-20T04:00:27.530Z,17.86
2023-03-20T04:05:33.502Z,17.84
2023-03-20T04:10:38.504Z,18.05
2023-03-20T04:15:42.674Z,17.76
2023-03-20T04:20:47.471Z,17.83
2023-03-20T04:25:52.585Z,17.80
2023-03-20T04:30:57.349Z,17.77
2023-03-20T04:36:01.113Z,17.90
2023-03-20T04:41:06.590Z,17.88
2023-03-20T04:46:10.206Z,17.76
2023-03-20T04:51:13.697Z,17.72
2023-03-20T04:56:18.604Z,17.67
2023-03-20T05:01:23.570Z,17.73
2023-03-20T05:06:27.077Z,17.76
2023-03-20T05:11:32.031Z,17.80
2023-03-20T05:16:35.761Z,17.77
2023-03-20T05:21:39.251Z,17.76
2023-03-20T05:26:44.122Z,17.74
2023-03-20T05:31:47.721Z,17.89
2023-03-20T05:36:51.136Z,17.75
2023-03-20T05:41:56.302Z,17.67
2023-03-20T05:46:59.803Z,17.84
2023-03-20T05:52:03.266Z,17.65
2023-03-20T05:57:08.194Z,17.64
2023-03-20T06:02:11.777Z,17.74
2023-03-20T06:07:15.412Z,17.72
2023-03-20T06:12:20.317Z,17.57
2023-03-20T06:17:23.759Z,17.60
2023-03-20T06:22:27.226Z,17.64
2023-03-20T06:27:32.110Z,17.69
2023-03-20T06:32:35.709Z,17.54
2023-03-20T06:37:39.198Z,17.53
2023-03-20T06:42:44.014Z,17.50
2023-03-20T06:47:48.452Z,17.48
2023-03-20T06:52:52.588Z,17.57
2023-03-20T06:57:57.444Z,17.51
2023-03-20T07:03:02.260Z,17.57
2023-03-20T07:08:07.583Z,17.53
2023-03-20T07:13:12.528Z,17.45
2023-03-20T07:18:16.623Z,17.48
2023-03-20T07:23:20.797Z,17.50
2023-03-20T07:28:25.737Z,17.63
2023-03-20T07:33:29.145Z,17.67
2023-03-20T07:38:32.663Z,17.55
2023-03-20T07:43:37.556Z,17.61
2023-03-20T07:48:41.243Z,17.57
2023-03-20T07:53:44.720Z,17.74
2023-03-20T07:58:49.664Z,17.99
2023-03-20T08:03:53.172Z,17.92
2023-03-20T08:08:57.022Z,17.91
2023-03-20T08:14:01.845Z,17.89
2023-03-20T08:19:06.471Z,17.82
2023-03-20T08:24:10.493Z,17.88
2023-03-20T08:29:17.508Z,17.71
2023-03-20T08:34:23.610Z,17.65
2023-03-20T08:39:27.664Z,17.56
2023-03-20T08:44:32.724Z,17.65
2023-03-20T08:49:37.152Z,17.48
2023-03-20T08:54:40.929Z,17.58
2023-03-20T08:59:45.882Z,17.60
2023-03-20T09:04:49.320Z,17.50
2023-03-20T09:09:52.807Z,17.61
2023-03-20T09:14:57.703Z,17.60
2023-03-20T09:20:01.276Z,17.61
2023-03-20T09:25:05.024Z,17.58
2023-03-20T09:30:12.800Z,17.58
2023-03-20T09:35:17.092Z,17.46
2023-03-20T09:40:25.516Z,17.54
2023-03-20T09:45:45.179Z,17.48
2023-03-20T09:50:54.242Z,17.53
2023-03-20T09:55:57.935Z,17.53
2023-03-20T10:01:05.038Z,17.55
2023-03-20T10:06:13.486Z,17.53
2023-03-20T10:11:39.430Z,17.52
2023-03-20T10:16:54.576Z,17.55
2023-03-20T10:22:09.361Z,17.59
2023-03-20T10:27:26.199Z,17.57
2023-03-20T10:32:37.167Z,17.68
2023-03-20T10:37:49.186Z,17.62
2023-03-20T10:42:54.568Z,17.68
2023-03-20T10:48:01.861Z,17.68
2023-03-20T10:53:06.097Z,17.62
2023-03-20T10:58:17.388Z,17.66
2023-03-20T11:03:25.384Z,17.65
2023-03-20T11:08:35.609Z,17.63
2023-03-20T11:13:41.956Z,17.60
2023-03-20T11:18:49.386Z,17.61
2023-03-20T11:23:53.176Z,17.57
2023-03-20T11:28:58.816Z,17.61
2023-03-20T11:34:13.665Z,17.65
2023-03-20T11:39:23.845Z,17.67
2023-03-20T11:44:29.542Z,17.66
2023-03-20T11:49:35.427Z,17.67
2023-03-20T11:54:39.566Z,17.66
2023-03-20T11:59:43.070Z,17.68
2023-03-20T12:04:48.163Z,17.65
2023-03-20T12:09:54.556Z,17.67
2023-03-20T12:15:04.854Z,17.68
2023-03-20T12:20:26.523Z,17.65
2023-03-20T12:25:34.807Z,17.63
2023-03-20T12:30:49.921Z,17.61
2023-03-20T12:35:55.395Z,17.54
2023-03-20T12:41:06.452Z,17.58
2023-03-20T12:46:18.032Z,17.60
2023-03-20T12:51:27.612Z,17.55
2023-03-20T12:56:53.843Z,17.56
2023-03-20T13:01:59.983Z,17.62
2023-03-20T13:07:08.958Z,17.71
2023-03-20T13:12:19.116Z,17.84
2023-03-20T13:17:26.484Z,17.60
2023-03-20T13:22:36.093Z,17.72
2023-03-20T13:27:43.102Z,17.81
2023-03-20T13:32:54.962Z,17.64
2023-03-20T13:38:01.510Z,17.58
2023-03-20T13:43:15.230Z,17.77
2023-03-20T13:48:26.153Z,17.61
2023-03-20T13:53:37.016Z,17.72
2023-03-20T13:58:53.798Z,17.89
2023-03-20T14:03:57.613Z,17.83
2023-03-20T14:09:02.489Z,17.55
2023-03-20T14:14:11.781Z,17.77
2023-03-20T14:19:19.365Z,17.65
2023-03-20T14:24:25.715Z,17.68
2023-03-20T14:29:37.548Z,17.97
2023-03-20T14:34:48.890Z,17.86
2023-03-20T14:39:56.187Z,17.99
2023-03-20T14:45:18.566Z,17.84
2023-03-20T14:50:24.896Z,17.75
2023-03-20T14:55:49.465Z,17.82
2023-03-20T15:00:53.245Z,17.71
2023-03-20T15:05:58.651Z,17.84
2023-03-20T15:11:08.222Z,17.76
2023-03-20T15:16:13.886Z,18.00
2023-03-20T15:21:18.756Z,17.67
2023-03-20T15:26:25.484Z,17.80
2023-03-20T15:31:31.351Z,17.72
2023-03-20T15:36:37.285Z,17.58
2023-03-20T15:41:46.840Z,18.04
2023-03-20T15:46:56.162Z,18.11
2023-03-20T15:52:02.525Z,18.06
2023-03-20T15:57:07.485Z,17.91
2023-03-20T16:02:12.896Z,18.01
2023-03-20T16:07:22.822Z,17.83
2023-03-20T16:12:28.199Z,17.91
2023-03-20T16:17:31.719Z,17.65
2023-03-20T16:22:35.185Z,17.95
2023-03-20T16:27:41.976Z,18.03
2023-03-20T16:32:47.391Z,17.95
2023-03-20T16:37:54.192Z,17.92
2023-03-20T16:42:59.265Z,17.82
2023-03-20T16:48:28.970Z,18.01
2023-03-20T16:53:39.273Z,18.04
2023-03-20T16:58:46.215Z,18.11
2023-03-20T17:03:52.455Z,17.93
2023-03-20T17:08:57.701Z,17.99
2023-03-20T17:14:03.762Z,18.02
2023-03-20T17:19:10.719Z,18.01
2023-03-20T17:24:15.334Z,17.97
2023-03-20T17:29:20.552Z,17.91
2023-03-20T17:34:24.175Z,17.79
2023-03-20T17:39:27.587Z,17.65
2023-03-20T17:44:32.481Z,17.81
2023-03-20T17:49:36.171Z,17.76
2023-03-20T17:54:39.839Z,17.83
2023-03-20T17:59:44.723Z,17.82
2023-03-20T18:04:48.548Z,17.86
2023-03-20T18:09:52.136Z,17.75
2023-03-20T18:14:56.989Z,17.97
2023-03-20T18:20:00.501Z,17.95
2023-03-20T18:25:04.892Z,17.91
2023-03-20T18:30:16.827Z,17.80
2023-03-20T18:35:20.479Z,17.84
2023-03-20T18:40:27.027Z,17.99
2023-03-20T18:45:32.875Z,18.05
2023-03-20T18:50:38.304Z,18.17
2023-03-20T18:55:41.889Z,18.09
2023-03-20T19:00:46.769Z,18.07
2023-03-20T19:05:50.282Z,18.19
2023-03-20T19:10:53.922Z,18.22
2023-03-20T19:15:59.084Z,18.13
2023-03-20T19:21:02.720Z,17.88
2023-03-20T19:26:10.826Z,18.03
2023-03-20T19:31:15.751Z,18.02
2023-03-20T19:36:25.784Z,18.18
2023-03-20T19:41:29.953Z,17.91
2023-03-20T19:46:42.532Z,18.23
2023-03-20T19:51:46.283Z,18.34
2023-03-20T19:56:49.679Z,18.32
2023-03-20T20:01:55.139Z,18.15
2023-03-20T20:07:33.053Z,18.38
2023-03-20T20:12:22.128Z,18.35
2023-03-20T20:17:27.181Z,18.43
2023-03-20T20:22:31.263Z,18.16
2023-03-20T20:27:34.997Z,18.38
2023-03-20T20:32:40.891Z,18.26
2023-03-20T20:38:30.852Z,18.46
2023-03-20T20:43:10.324Z,18.25
2023-03-20T20:48:15.912Z,18.42
2023-03-20T20:53:19.800Z,18.48
2023-03-20T20:58:23.282Z,18.32
2023-03-20T21:03:29.218Z,18.33
2023-03-20T21:08:34.912Z,18.14
2023-03-20T21:13:38.367Z,18.36
2023-03-20T21:18:43.549Z,18.34
2023-03-20T21:23:47.048Z,18.19
2023-03-20T21:28:50.721Z,18.29
2023-03-20T21:33:55.974Z,18.37
2023-03-20T21:39:08.132Z,18.23
2023-03-20T21:44:17.631Z,18.30
2023-03-20T21:50:23.167Z,18.25
2023-03-20T22:06:23.836Z,18.19
2023-03-20T22:11:56.341Z,18.23
2023-03-20T22:17:31.345Z,18.20
2023-03-20T22:44:24.739Z,18.03
2023-03-20T22:48:52.206Z,17.84
2023-03-20T22:53:57.084Z,17.85
2023-03-20T22:59:01.606Z,18.21
2023-03-20T23:04:05.108Z,18.09
2023-03-20T23:09:15.240Z,17.99
2023-03-20T23:14:22.139Z,17.98
2023-03-20T23:19:26.661Z,18.09
2023-03-20T23:24:32.817Z,18.03
2023-03-20T23:29:36.296Z,18.27
2023-03-20T23:34:39.792Z,18.30
2023-03-20T23:39:44.660Z,18.12
2023-03-20T23:44:56.304Z,18.02
2023-03-20T23:50:02.283Z,17.96
2023-03-20T23:55:08.108Z,17.92
